Time;durP1;ratioP1;P1;durP2;ratioP2;P2;SDS_P1;SDS_P2;PMS_P1;PMS_P2;Temp;Humidity;BMP_temperature;BMP_pressure;BME280_temperature;BME280_humidity;BME280_pressure;Samples;Min_cycle;Max_cycle;Signal;HPM_P1;HPM_P2
2022/12/12 00:01:28;;;;;;;54.30;27.00;;;;;;;-3.17;78.29;97555.80;103373;1292;96335;-65
2022/12/12 00:03:56;;;;;;;47.70;22.40;;;;;;;-3.18;78.46;97552.34;103402;1294;108214;-66
2022/12/12 00:06:25;;;;;;;49.30;24.80;;;;;;;-3.17;78.37;97553.52;103423;1278;97829;-65
2022/12/12 00:08:53;;;;;;;50.80;25.50;;;;;;;-3.16;78.48;97550.36;103409;1298;98328;-66
2022/12/12 00:11:23;;;;;;;44.10;21.50;;;;;;;-3.14;78.21;97557.73;103441;1291;111654;-67
2022/12/12 00:13:53;;;;;;;49.00;25.30;;;;;;;-3.15;78.26;97561.77;103526;1291;98542;-67
2022/12/12 00:16:22;;;;;;;49.40;25.20;;;;;;;-3.16;78.19;97570.48;103290;1301;108179;-65
2022/12/12 00:18:51;;;;;;;49.60;24.50;;;;;;;-3.17;78.36;97575.52;103469;1291;98452;-66
2022/12/12 00:21:22;;;;;;;50.00;25.60;;;;;;;-3.17;78.42;97582.13;103408;1291;97952;-65
2022/12/12 00:23:51;;;;;;;52.70;26.00;;;;;;;-3.17;78.36;97584.73;103437;1285;110885;-65
2022/12/12 00:26:22;;;;;;;52.10;27.10;;;;;;;-3.17;78.27;97590.64;103480;1298;97892;-66
2022/12/12 00:28:50;;;;;;;52.50;25.70;;;;;;;-3.18;78.36;97584.59;103527;1298;105178;-66
2022/12/12 00:31:19;;;;;;;45.80;24.70;;;;;;;-3.19;78.10;97591.74;103444;1291;97866;-66
2022/12/12 00:33:48;;;;;;;54.70;28.80;;;;;;;-3.20;77.97;97596.49;103576;1292;97975;-66
2022/12/12 00:36:24;;;;;;;47.90;25.20;;;;;;;-3.21;78.15;97599.27;103495;1291;112180;-66
2022/12/12 00:38:52;;;;;;;50.30;25.00;;;;;;;-3.20;78.27;97595.77;103432;1295;97690;-64
2022/12/12 00:41:21;;;;;;;49.10;24.70;;;;;;;-3.20;78.03;97594.39;103449;1292;107433;-66
2022/12/12 00:43:49;;;;;;;50.20;25.80;;;;;;;-3.21;77.94;97594.25;103503;1291;96572;-65
2022/12/12 00:46:22;;;;;;;49.40;24.70;;;;;;;-3.22;78.11;97592.55;103466;1285;97904;-65
2022/12/12 00:48:53;;;;;;;48.80;25.20;;;;;;;-3.23;78.18;97591.05;103477;1283;111704;-65
2022/12/12 00:51:23;;;;;;;50.90;26.60;;;;;;;-3.23;78.48;97588.08;103557;1295;97748;-66
2022/12/12 00:53:52;;;;;;;43.50;22.30;;;;;;;-3.23;78.46;97581.20;103541;1289;106880;-66
2022/12/12 00:56:21;;;;;;;48.50;25.50;;;;;;;-3.24;77.88;97576.00;103399;1298;95173;-66
2022/12/12 00:58:51;;;;;;;50.60;26.50;;;;;;;-3.25;78.01;97572.56;103528;1292;98007;-66
2022/12/12 01:01:25;;;;;;;49.40;24.50;;;;;;;-3.26;78.25;97570.04;103530;1291;111329;-66
2022/12/12 01:03:54;;;;;;;49.30;25.70;;;;;;;-3.27;77.94;97572.14;103523;1298;97796;-66
2022/12/12 01:06:22;;;;;;;48.80;24.40;;;;;;;-3.26;78.05;97574.17;103515;1292;107864;-65
2022/12/12 01:08:52;;;;;;;50.20;24.30;;;;;;;-3.26;78.14;97571.23;103485;1291;97848;-65
2022/12/12 01:11:20;;;;;;;48.40;25.60;;;;;;;-3.26;78.07;97571.77;103461;1291;97892;-66
2022/12/12 01:13:51;;;;;;;49.80;26.10;;;;;;;-3.28;77.81;97566.47;103498;1295;110788;-65
2022/12/12 01:16:19;;;;;;;45.80;23.10;;;;;;;-3.30;77.98;97564.78;103467;1291;97868;-65
2022/12/12 01:18:47;;;;;;;42.20;22.50;;;;;;;-3.28;77.95;97561.80;103530;1291;107314;-66
2022/12/12 01:21:17;;;;;;;44.20;22.50;;;;;;;-3.26;77.99;97562.58;103438;1291;97829;-66
2022/12/12 01:23:46;;;;;;;48.10;24.50;;;;;;;-3.26;78.29;97562.23;103483;1291;97895;-67
2022/12/12 01:26:17;;;;;;;44.20;22.80;;;;;;;-3.28;78.17;97558.98;103494;1294;111226;-66
2022/12/12 01:28:46;;;;;;;45.10;23.10;;;;;;;-3.27;78.34;97550.66;103477;1298;97910;-66
2022/12/12 01:31:15;;;;;;;47.40;22.30;;;;;;;-3.27;78.27;97547.38;103476;1292;107584;-66
2022/12/12 01:33:44;;;;;;;44.80;22.20;;;;;;;-3.27;78.12;97545.64;103495;1291;97943;-66
2022/12/12 01:36:17;;;;;;;44.50;22.30;;;;;;;-3.27;78.16;97542.87;103446;1285;95183;-64
2022/12/12 01:38:47;;;;;;;42.30;22.80;;;;;;;-3.28;78.11;97545.65;103434;1295;111144;-66
2022/12/12 01:41:16;;;;;;;45.40;23.20;;;;;;;-3.28;77.86;97543.60;103512;1291;95088;-66
2022/12/12 01:43:44;;;;;;;47.10;23.70;;;;;;;-3.30;78.02;97545.54;103422;1297;107923;-65
2022/12/12 01:46:32;;;;;;;49.80;25.10;;;;;;;-3.30;78.15;97541.94;103402;1292;97860;-64
2022/12/12 01:49:19;;;;;;;44.40;23.70;;;;;;;-3.32;77.91;97537.52;103505;1299;97816;-66
2022/12/12 01:51:51;;;;;;;44.70;20.30;;;;;;;-3.34;78.13;97536.54;103482;1292;111710;-65
2022/12/12 01:54:28;;;;;;;48.10;23.60;;;;;;;-3.35;78.06;97537.28;103517;1297;97969;-65
2022/12/12 01:56:59;;;;;;;46.80;23.50;;;;;;;-3.36;78.15;97535.07;103538;1298;107406;-66
2022/12/12 01:59:28;;;;;;;44.80;23.00;;;;;;;-3.35;78.10;97535.54;103503;1292;97871;-64
2022/12/12 02:01:56;;;;;;;47.30;24.80;;;;;;;-3.34;78.11;97530.65;103494;1297;95264;-65
2022/12/12 02:04:26;;;;;;;47.90;24.30;;;;;;;-3.33;78.11;97534.42;103447;1291;111408;-64
2022/12/12 02:06:55;;;;;;;45.80;23.50;;;;;;;-3.34;78.18;97533.92;103496;1291;98504;-65
2022/12/12 02:09:24;;;;;;;45.00;23.30;;;;;;;-3.34;78.41;97532.39;103518;1291;107610;-65
2022/12/12 02:11:54;;;;;;;48.50;24.30;;;;;;;-3.34;77.95;97527.18;103520;1291;95198;-66
2022/12/12 02:14:30;;;;;;;49.60;25.70;;;;;;;-3.33;78.23;97527.15;103444;1294;97915;-66
2022/12/12 02:17:07;;;;;;;45.00;23.80;;;;;;;-3.32;78.20;97530.02;103493;1298;111004;-66
2022/12/12 02:19:51;;;;;;;50.10;24.10;;;;;;;-3.30;78.27;97529.98;103447;1292;97693;-66
2022/12/12 02:22:42;;;;;;;44.80;21.90;;;;;;;-3.27;78.23;97537.13;103364;1298;108626;-66
2022/12/12 02:25:46;;;;;;;47.40;22.70;;;;;;;-3.27;78.32;97539.89;103427;1285;97906;-66
2022/12/12 02:28:39;;;;;;;44.10;22.80;;;;;;;-3.24;78.20;97542.39;103505;1283;97945;-66
2022/12/12 02:31:13;;;;;;;48.20;24.00;;;;;;;-3.24;78.33;97536.45;103441;1291;111943;-66
2022/12/12 02:34:06;;;;;;;48.20;24.20;;;;;;;-3.22;78.25;97534.15;103393;1297;97931;-66
2022/12/12 02:36:49;;;;;;;45.10;22.70;;;;;;;-3.21;78.01;97534.09;103347;1295;107483;-66
2022/12/12 02:39:26;;;;;;;46.10;23.20;;;;;;;-3.19;78.53;97540.27;103473;1291;98411;-66
2022/12/12 02:42:18;;;;;;;45.20;21.90;;;;;;;-3.18;78.14;97535.89;103552;1298;95303;-65
2022/12/12 02:45:14;;;;;;;48.20;23.40;;;;;;;-3.18;78.31;97536.20;103483;1284;111546;-65
2022/12/12 02:47:50;;;;;;;44.10;22.70;;;;;;;-3.17;78.17;97537.40;103416;1291;97968;-66
2022/12/12 02:50:22;;;;;;;43.90;22.50;;;;;;;-3.18;78.32;97535.70;103515;1291;107426;-67
2022/12/12 02:52:51;;;;;;;43.90;19.90;;;;;;;-3.17;78.25;97531.15;103318;1301;97995;-66
2022/12/12 02:55:19;;;;;;;49.30;24.20;;;;;;;-3.18;77.97;97528.77;103338;1291;96521;-65
2022/12/12 02:57:48;;;;;;;43.40;23.00;;;;;;;-3.18;77.83;97528.58;103448;1291;113992;-65
2022/12/12 03:00:18;;;;;;;39.80;18.90;;;;;;;-3.16;78.22;97529.05;103454;1298;97696;-66
2022/12/12 03:02:52;;;;;;;42.80;22.10;;;;;;;-3.17;78.54;97529.23;103457;1282;108466;-65
2022/12/12 03:08:50;;;;;;;40.80;21.60;;;;;;;-3.16;78.12;97536.15;103417;1291;97943;-65
2022/12/12 03:11:45;;;;;;;44.70;21.90;;;;;;;-3.16;78.07;97531.98;103459;1297;111799;-65
2022/12/12 03:14:24;;;;;;;45.00;22.50;;;;;;;-3.18;78.04;97531.19;103517;1291;95192;-65
2022/12/12 03:17:09;;;;;;;44.30;21.60;;;;;;;-3.18;78.03;97529.27;103394;1291;106260;-65
2022/12/12 03:19:46;;;;;;;44.80;22.20;;;;;;;-3.18;78.21;97533.63;103367;1292;98457;-65
2022/12/12 03:22:22;;;;;;;42.10;20.80;;;;;;;-3.18;78.07;97532.09;103522;1298;97892;-65
2022/12/12 03:25:06;;;;;;;40.90;21.10;;;;;;;-3.18;78.40;97530.32;103512;1289;111818;-66
2022/12/12 03:27:47;;;;;;;42.00;21.00;;;;;;;-3.16;78.24;97534.25;103435;1291;97969;-65
2022/12/12 03:30:18;;;;;;;41.30;20.30;;;;;;;-3.18;78.30;97531.70;103487;1291;108527;-65
2022/12/12 03:33:02;;;;;;;44.70;20.00;;;;;;;-3.17;77.97;97538.61;103509;1293;98039;-66
2022/12/12 03:35:38;;;;;;;41.70;20.30;;;;;;;-3.16;77.88;97541.50;103423;1291;97911;-66
2022/12/12 03:38:16;;;;;;;41.00;20.00;;;;;;;-3.15;78.03;97540.08;103463;1298;111467;-66
2022/12/12 03:40:54;;;;;;;36.00;17.40;;;;;;;-3.13;78.07;97537.25;103433;1298;97967;-66
2022/12/12 03:43:26;;;;;;;44.60;19.80;;;;;;;-3.13;78.01;97537.06;103488;1285;107730;-65
2022/12/12 03:46:14;;;;;;;42.40;22.20;;;;;;;-3.12;78.09;97530.61;103491;1291;97817;-67
2022/12/12 03:48:53;;;;;;;43.30;21.00;;;;;;;-3.12;78.24;97527.14;103477;1294;97798;-66
2022/12/12 03:51:28;;;;;;;38.60;19.80;;;;;;;-3.10;78.41;97528.80;103519;1291;112471;-65
2022/12/12 03:53:57;;;;;;;41.90;20.80;;;;;;;-3.10;78.23;97519.95;103462;1291;97964;-66
2022/12/12 03:56:44;;;;;;;40.30;20.10;;;;;;;-3.09;78.21;97522.36;103453;1291;107881;-66
2022/12/12 03:59:19;;;;;;;40.00;20.30;;;;;;;-3.08;78.34;97527.16;103489;1298;95191;-65
2022/12/12 04:02:14;;;;;;;40.20;20.50;;;;;;;-3.08;78.02;97529.22;103474;1284;97948;-64
2022/12/12 04:05:06;;;;;;;38.50;18.30;;;;;;;-3.11;78.15;97525.72;103503;1298;111135;-63
2022/12/12 04:07:50;;;;;;;42.80;19.90;;;;;;;-3.14;77.98;97525.98;103519;1291;96647;-65
2022/12/12 04:13:21;;;;;;;35.10;17.10;;;;;;;-3.15;77.89;97523.80;103352;1291;95218;-67
2022/12/12 04:16:10;;;;;;;39.50;17.80;;;;;;;-3.15;78.03;97525.19;103488;1291;97864;-66
2022/12/12 04:18:58;;;;;;;35.70;17.40;;;;;;;-3.17;78.17;97526.13;103350;1291;111203;-66
2022/12/12 04:24:52;;;;;;;39.40;18.00;;;;;;;-3.18;77.88;97528.44;103427;1291;108162;-65
2022/12/12 04:27:25;;;;;;;38.90;19.30;;;;;;;-3.19;78.19;97531.04;103473;1292;97959;-64
2022/12/12 04:30:13;;;;;;;;;;;;;;;-3.18;78.30;97534.30;103515;1284;97905;-66
2022/12/12 04:32:54;;;;;;;36.10;18.00;;;;;;;-3.21;78.39;97538.95;103477;1291;111750;-66
2022/12/12 04:35:30;;;;;;;35.90;15.90;;;;;;;-3.22;78.10;97542.09;103508;1297;97944;-65
2022/12/12 04:38:09;;;;;;;38.60;18.60;;;;;;;-3.22;77.74;97540.88;103372;1291;108116;-65
2022/12/12 04:40:43;;;;;;;35.70;17.10;;;;;;;-3.20;77.82;97543.78;103386;1291;97867;-65
2022/12/12 04:43:18;;;;;;;;;;;;;;;-3.20;77.93;97549.66;103449;1298;98048;-65
2022/12/12 04:45:51;;;;;;;34.00;16.70;;;;;;;-3.23;77.88;97551.67;103279;1292;134107;-66
2022/12/12 04:48:27;;;;;;;35.60;16.60;;;;;;;-3.21;78.04;97549.89;103452;1295;97984;-66
2022/12/12 04:50:57;;;;;;;33.40;17.30;;;;;;;-3.20;77.89;97545.84;103496;1291;108169;-65
2022/12/12 04:53:39;;;;;;;35.40;16.40;;;;;;;-3.19;78.05;97545.12;103398;1291;97902;-65
2022/12/12 04:56:12;;;;;;;35.30;15.50;;;;;;;-3.19;77.81;97541.47;103421;1291;97903;-65
2022/12/12 04:58:40;;;;;;;31.70;16.00;;;;;;;-3.20;77.77;97543.40;103429;1291;111204;-65
2022/12/12 05:01:21;;;;;;;33.10;16.60;;;;;;;-3.20;77.88;97551.23;103472;1292;97766;-65
2022/12/12 05:03:56;;;;;;;36.80;16.70;;;;;;;-3.21;77.71;97553.71;103395;1291;108145;-66
2022/12/12 05:06:41;;;;;;;34.10;15.60;;;;;;;-3.23;77.91;97560.01;103480;1292;97870;-66
2022/12/12 05:09:10;;;;;;;33.80;15.40;;;;;;;-3.23;77.71;97559.00;103404;1294;97995;-65
2022/12/12 05:11:38;;;;;;;35.00;16.80;;;;;;;-3.25;78.03;97560.60;103549;1291;111119;-66
2022/12/12 05:14:08;;;;;;;36.00;18.30;;;;;;;-3.25;78.19;97558.18;103472;1291;97895;-65
2022/12/12 05:16:50;;;;;;;37.30;16.60;;;;;;;-3.24;77.85;97559.20;103523;1291;107206;-65
2022/12/12 05:19:19;;;;;;;32.30;15.00;;;;;;;-3.24;77.99;97557.45;103457;1291;97870;-65
2022/12/12 05:21:48;;;;;;;37.00;15.90;;;;;;;-3.23;77.89;97555.15;103492;1284;97875;-66
2022/12/12 05:24:16;;;;;;;32.40;14.70;;;;;;;-3.24;77.86;97556.22;103520;1291;111717;-65
2022/12/12 05:26:44;;;;;;;35.60;16.90;;;;;;;-3.25;78.22;97556.61;103434;1295;96937;-66
2022/12/12 05:29:13;;;;;;;35.50;16.10;;;;;;;-3.25;78.11;97556.47;103430;1291;108090;-65
2022/12/12 05:31:41;;;;;;;34.50;15.50;;;;;;;-3.25;77.98;97557.34;103458;1298;97989;-66
2022/12/12 05:34:09;;;;;;;33.00;16.20;;;;;;;-3.26;77.93;97557.70;103530;1297;97864;-65
2022/12/12 05:36:37;;;;;;;33.80;15.40;;;;;;;-3.25;78.00;97552.29;103442;1282;111768;-65
2022/12/12 05:39:05;;;;;;;31.90;15.60;;;;;;;-3.24;77.96;97555.72;103515;1291;97888;-65
2022/12/12 05:41:33;;;;;;;34.00;15.90;;;;;;;-3.24;77.85;97556.27;103522;1291;108154;-65
2022/12/12 05:44:01;;;;;;;38.10;15.90;;;;;;;-3.24;78.15;97559.20;103519;1292;96573;-66
2022/12/12 05:46:29;;;;;;;33.70;15.60;;;;;;;-3.25;78.03;97561.11;103520;1291;97998;-66
2022/12/12 05:48:57;;;;;;;34.00;15.60;;;;;;;-3.24;77.78;97565.80;103496;1298;110652;-65
2022/12/12 05:51:26;;;;;;;32.50;15.20;;;;;;;-3.26;77.96;97567.58;103593;1292;95090;-67
2022/12/12 05:53:54;;;;;;;32.30;15.30;;;;;;;-3.27;78.00;97570.76;103507;1299;107964;-69
2022/12/12 05:56:22;;;;;;;34.30;15.60;;;;;;;-3.27;77.97;97564.88;103462;1286;98297;-69
2022/12/12 05:58:50;;;;;;;32.10;15.10;;;;;;;-3.28;77.95;97559.00;103496;1298;97893;-69
2022/12/12 06:01:18;;;;;;;32.30;15.30;;;;;;;-3.27;77.99;97561.07;103408;1295;111250;-65
2022/12/12 06:03:46;;;;;;;34.70;16.10;;;;;;;-3.26;77.86;97563.11;104453;1299;97989;-67
2022/12/12 06:06:14;;;;;;;32.80;15.10;;;;;;;-3.27;77.92;97566.61;103388;1298;108168;-67
2022/12/12 06:08:42;;;;;;;34.00;15.90;;;;;;;-3.27;77.88;97568.34;103437;1291;97908;-65
2022/12/12 06:11:11;;;;;;;31.50;13.30;;;;;;;-3.26;77.84;97572.13;103491;1298;97943;-66
2022/12/12 06:13:39;;;;;;;34.50;15.50;;;;;;;-3.24;77.97;97574.95;103462;1298;111496;-66
2022/12/12 06:16:11;;;;;;;32.20;15.00;;;;;;;-3.22;77.76;97576.28;103450;1298;96509;-67
2022/12/12 06:18:39;;;;;;;31.50;14.40;;;;;;;-3.22;77.87;97573.51;103346;1297;107511;-67
2022/12/12 06:21:09;;;;;;;34.80;14.70;;;;;;;-3.22;77.91;97574.54;103496;1298;97977;-66
2022/12/12 06:23:41;;;;;;;34.50;14.90;;;;;;;-3.22;78.08;97576.28;103410;1291;97946;-67
2022/12/12 06:26:12;;;;;;;32.20;13.90;;;;;;;-3.20;77.64;97574.46;103264;1294;111242;-66
2022/12/12 06:28:40;;;;;;;32.10;13.90;;;;;;;-3.19;77.99;97579.28;103378;1291;95085;-65
2022/12/12 06:31:08;;;;;;;30.80;14.20;;;;;;;-3.17;77.97;97578.86;103384;1291;107737;-67
2022/12/12 06:33:41;;;;;;;31.40;13.90;;;;;;;-3.16;78.02;97577.76;103400;1299;97977;-67
2022/12/12 06:36:13;;;;;;;32.20;15.70;;;;;;;-3.14;78.11;97583.73;103409;1289;97872;-65
2022/12/12 06:38:41;;;;;;;33.60;15.80;;;;;;;-3.12;78.28;97586.64;103452;1297;111842;-66
2022/12/12 06:41:12;;;;;;;33.60;14.80;;;;;;;-3.09;77.97;97589.83;103430;1291;97970;-66
2022/12/12 06:43:41;;;;;;;34.80;15.70;;;;;;;-3.08;77.92;97589.77;103411;1298;107559;-67
2022/12/12 06:46:17;;;;;;;33.40;15.40;;;;;;;-3.07;77.94;97588.66;103452;1292;97968;-67
2022/12/12 06:48:46;;;;;;;32.10;14.50;;;;;;;-3.06;78.09;97586.36;103414;1291;97875;-66
2022/12/12 06:51:19;;;;;;;31.80;14.60;;;;;;;-3.06;77.76;97585.84;103400;1291;111818;-66
2022/12/12 06:53:48;;;;;;;32.60;14.60;;;;;;;-3.05;77.84;97585.30;103430;1291;97872;-66
2022/12/12 06:56:19;;;;;;;28.10;13.20;;;;;;;-3.04;78.00;97586.96;103397;1298;107522;-66
2022/12/12 06:58:47;;;;;;;33.20;14.90;;;;;;;-3.03;78.08;97588.52;103392;1291;98028;-66
2022/12/12 07:01:20;;;;;;;30.60;14.20;;;;;;;-3.04;77.80;97589.39;103499;1298;97858;-67
2022/12/12 07:03:50;;;;;;;33.20;14.10;;;;;;;-3.03;78.14;97591.61;103426;1291;111186;-66
2022/12/12 07:06:22;;;;;;;33.10;14.40;;;;;;;-3.01;78.09;97587.53;103399;1291;97909;-68
2022/12/12 07:08:51;;;;;;;33.30;15.20;;;;;;;-2.97;78.07;97585.66;103400;1298;107306;-66
2022/12/12 07:11:24;;;;;;;35.40;15.50;;;;;;;-2.94;78.23;97585.90;103451;1298;97836;-67
2022/12/12 07:13:54;;;;;;;32.30;14.90;;;;;;;-2.90;77.88;97584.34;103495;1291;97885;-67
2022/12/12 07:16:23;;;;;;;33.90;15.50;;;;;;;-2.88;77.96;97586.33;103537;1291;111180;-67
2022/12/12 07:18:51;;;;;;;33.30;15.50;;;;;;;-2.86;78.19;97586.60;103406;1299;97948;-67
2022/12/12 07:21:19;;;;;;;31.00;13.50;;;;;;;-2.86;77.89;97584.51;103414;1291;108157;-66
2022/12/12 07:23:48;;;;;;;36.40;15.60;;;;;;;-2.87;78.12;97582.81;103509;1298;97873;-65
2022/12/12 07:26:19;;;;;;;35.70;15.00;;;;;;;-2.89;77.93;97584.80;103561;1291;97981;-65
2022/12/12 07:28:49;;;;;;;35.20;15.80;;;;;;;-2.92;78.17;97588.24;103581;1292;111198;-66
2022/12/12 07:31:20;;;;;;;33.50;15.00;;;;;;;-2.94;78.01;97589.86;103538;1299;98555;-66
2022/12/12 07:33:48;;;;;;;34.40;15.90;;;;;;;-2.92;78.15;97592.77;103475;1291;107078;-67
2022/12/12 07:36:17;;;;;;;34.10;15.90;;;;;;;-2.92;77.92;97595.52;103485;1291;97027;-67
2022/12/12 07:38:45;;;;;;;37.10;17.50;;;;;;;-2.91;78.03;97596.34;103515;1298;97887;-67
2022/12/12 07:41:17;;;;;;;38.00;17.50;;;;;;;-2.93;78.19;97599.90;103504;1299;111665;-66
2022/12/12 07:43:46;;;;;;;39.90;17.20;;;;;;;-2.94;77.99;97599.96;103483;1291;95438;-66
2022/12/12 07:46:24;;;;;;;41.40;18.90;;;;;;;-2.93;77.98;97603.70;103401;1291;108733;-67
2022/12/12 07:48:53;;;;;;;40.50;18.20;;;;;;;-2.90;78.08;97608.46;103512;1292;98069;-68
2022/12/12 07:51:22;;;;;;;43.40;19.90;;;;;;;-2.87;78.13;97611.77;103558;1299;97856;-68
2022/12/12 07:53:50;;;;;;;40.90;18.70;;;;;;;-2.83;78.12;97610.05;103449;1294;111821;-65
2022/12/12 07:56:19;;;;;;;37.70;16.90;;;;;;;-2.80;78.19;97613.06;103533;1292;97941;-65
2022/12/12 07:58:49;;;;;;;39.00;17.20;;;;;;;-2.78;78.26;97615.77;103550;1291;107209;-65
2022/12/12 08:01:23;;;;;;;39.10;18.90;;;;;;;-2.77;78.00;97618.49;103459;1298;97921;-66
2022/12/12 08:03:53;;;;;;;37.30;19.00;;;;;;;-2.74;78.09;97618.89;103430;1291;97854;-66
2022/12/12 08:06:22;;;;;;;38.50;16.70;;;;;;;-2.69;77.88;97622.86;103415;1291;111109;-66
2022/12/12 08:08:52;;;;;;;40.80;19.20;;;;;;;-2.64;78.26;97623.68;103386;1291;98029;-66
2022/12/12 08:11:23;;;;;;;39.10;18.10;;;;;;;-2.60;77.95;97622.97;103415;1291;105884;-66
2022/12/12 08:13:52;;;;;;;37.10;16.80;;;;;;;-2.56;78.34;97626.96;103398;1292;97944;-66
2022/12/12 08:16:23;;;;;;;33.50;16.40;;;;;;;-2.51;77.83;97628.48;103396;1291;97870;-66
2022/12/12 08:18:53;;;;;;;38.60;18.70;;;;;;;-2.47;77.94;97625.04;103390;1295;110244;-66
2022/12/12 08:21:23;;;;;;;36.20;17.70;;;;;;;-2.41;78.16;97629.98;103552;1295;95302;-67
2022/12/12 08:23:58;;;;;;;38.80;17.90;;;;;;;-2.36;77.96;97635.36;103480;1291;108054;-67
2022/12/12 08:26:28;;;;;;;39.70;18.90;;;;;;;-2.34;77.98;97630.91;103510;1291;98612;-66
2022/12/12 08:28:57;;;;;;;36.70;17.30;;;;;;;-2.29;77.99;97630.16;103571;1291;98523;-66
2022/12/12 08:31:27;;;;;;;35.60;17.40;;;;;;;-2.23;78.05;97635.10;103579;1291;110148;-65
2022/12/12 08:33:56;;;;;;;38.30;18.70;;;;;;;-2.17;78.11;97639.75;103571;1291;98044;-67
2022/12/12 08:36:30;;;;;;;35.80;16.10;;;;;;;-2.14;77.73;97639.06;103492;1292;108121;-66
2022/12/12 08:39:06;;;;;;;39.80;18.80;;;;;;;-2.12;77.75;97638.63;103543;1291;96731;-66
2022/12/12 08:41:38;;;;;;;38.50;18.00;;;;;;;-2.09;77.75;97639.91;103439;1291;97864;-65
2022/12/12 08:44:09;;;;;;;38.10;16.90;;;;;;;-2.08;78.01;97643.84;103487;1291;111644;-67
2022/12/12 08:46:38;;;;;;;33.40;16.40;;;;;;;-2.06;77.97;97646.74;103511;1297;97980;-67
2022/12/12 08:49:08;;;;;;;36.80;17.70;;;;;;;-2.04;77.85;97645.57;103445;1295;108086;-66
2022/12/12 08:51:40;;;;;;;37.20;18.60;;;;;;;-2.02;77.99;97640.81;103547;1291;97984;-67
2022/12/12 08:54:11;;;;;;;40.80;17.40;;;;;;;-1.99;78.02;97639.64;103464;1298;97995;-66
2022/12/12 08:56:40;;;;;;;36.60;18.10;;;;;;;-1.92;78.19;97640.02;103466;1291;111706;-66
2022/12/12 08:59:08;;;;;;;37.00;19.10;;;;;;;-1.86;78.01;97638.20;103571;1291;98572;-67
2022/12/12 09:01:37;;;;;;;36.40;18.40;;;;;;;-1.79;78.13;97638.89;103464;1291;108099;-67
2022/12/12 09:04:05;;;;;;;39.90;18.20;;;;;;;-1.73;77.79;97643.87;103415;1299;97980;-67
2022/12/12 09:06:35;;;;;;;39.20;18.30;;;;;;;-1.71;77.88;97643.61;103302;1301;97824;-67
2022/12/12 09:09:03;;;;;;;34.90;17.40;;;;;;;-1.71;77.78;97645.31;103399;1295;111428;-67
2022/12/12 09:11:31;;;;;;;39.80;19.30;;;;;;;-1.72;77.98;97641.20;103520;1291;97877;-67
2022/12/12 09:13:59;;;;;;;40.00;19.00;;;;;;;-1.73;77.96;97643.52;103506;1295;108433;-67
2022/12/12 09:16:28;;;;;;;35.70;18.50;;;;;;;-1.75;77.77;97640.83;103554;1291;97965;-67
2022/12/12 09:18:57;;;;;;;37.20;17.60;;;;;;;-1.75;78.01;97642.57;103510;1291;98578;-68
2022/12/12 09:21:25;;;;;;;39.60;19.60;;;;;;;-1.73;77.87;97645.59;103548;1291;110794;-66
2022/12/12 09:23:53;;;;;;;35.40;16.80;;;;;;;-1.69;77.92;97644.04;103516;1285;98476;-70
2022/12/12 09:26:21;;;;;;;35.20;17.30;;;;;;;-1.67;77.79;97644.11;103354;1298;107187;-68
2022/12/12 09:28:49;;;;;;;38.60;17.90;;;;;;;-1.67;77.85;97644.11;103407;1301;97974;-70
2022/12/12 09:31:18;;;;;;;32.90;16.80;;;;;;;-1.68;77.85;97646.73;103408;1292;97877;-68
2022/12/12 09:33:46;;;;;;;34.50;16.80;;;;;;;-1.69;77.61;97647.67;103410;1292;110844;-67
2022/12/12 09:36:15;;;;;;;35.40;17.50;;;;;;;-1.70;77.88;97649.30;103487;1294;95115;-66
2022/12/12 09:38:43;;;;;;;35.70;17.20;;;;;;;-1.66;77.83;97647.72;103438;1292;108110;-67
2022/12/12 09:41:18;;;;;;;37.30;17.50;;;;;;;-1.60;77.81;97645.02;103483;1298;97965;-67
2022/12/12 09:44:04;;;;;;;37.00;17.00;;;;;;;-1.51;77.81;97641.81;103430;1299;97899;-66
2022/12/12 09:46:37;;;;;;;36.70;16.80;;;;;;;-1.43;77.67;97637.77;103467;1292;111249;-66
2022/12/12 09:49:13;;;;;;;35.50;17.20;;;;;;;-1.34;77.80;97637.71;103529;1291;98119;-66
2022/12/12 09:51:45;;;;;;;35.40;17.50;;;;;;;-1.30;77.47;97634.23;103557;1291;107803;-67
2022/12/12 09:54:19;;;;;;;33.80;16.80;;;;;;;-1.28;77.76;97637.45;103429;1299;98524;-68
2022/12/12 09:56:57;;;;;;;37.50;17.50;;;;;;;-1.19;77.57;97628.98;103536;1291;95122;-65
2022/12/12 09:59:56;;;;;;;36.40;17.80;;;;;;;-1.09;77.70;97633.41;103525;1298;111065;-65
2022/12/12 10:03:04;;;;;;;33.60;17.30;;;;;;;-0.93;77.55;97636.98;103507;1298;97772;-66
2022/12/12 10:05:52;;;;;;;35.00;17.50;;;;;;;-0.76;77.84;97633.90;103515;1298;107957;-66
2022/12/12 10:08:49;;;;;;;34.90;17.40;;;;;;;-0.64;77.73;97635.38;103500;1293;97991;-66
2022/12/12 10:11:50;;;;;;;35.40;17.10;;;;;;;-0.57;77.78;97637.64;103492;1291;97995;-66
2022/12/12 10:14:35;;;;;;;34.80;18.00;;;;;;;-0.59;77.52;97641.25;103373;1291;111801;-67
2022/12/12 10:17:11;;;;;;;38.80;18.20;;;;;;;-0.64;77.58;97639.40;103470;1291;96256;-66
2022/12/12 10:20:03;;;;;;;36.90;18.40;;;;;;;-0.65;77.68;97639.59;103485;1291;107984;-66
2022/12/12 10:22:41;;;;;;;34.20;17.00;;;;;;;-0.66;77.64;97635.83;103478;1299;97837;-67
2022/12/12 10:25:23;;;;;;;37.10;17.90;;;;;;;-0.68;77.60;97633.51;103421;1298;95637;-66
2022/12/12 10:28:11;;;;;;;29.20;13.80;;;;;;;-0.74;77.51;97631.54;103472;1291;111692;-65
2022/12/12 10:30:58;;;;;;;40.30;20.30;;;;;;;-0.79;77.58;97636.80;103415;1291;98532;-65
2022/12/12 10:33:50;;;;;;;37.30;18.00;;;;;;;-0.80;77.66;97640.33;103440;1291;108019;-66
2022/12/12 10:36:27;;;;;;;35.30;19.30;;;;;;;-0.83;77.43;97638.05;103420;1285;98109;-66
2022/12/12 10:38:57;;;;;;;34.90;17.40;;;;;;;-0.87;77.51;97641.56;103465;1294;97905;-65
2022/12/12 10:42:05;;;;;;;35.70;17.70;;;;;;;-0.89;77.50;97639.77;103373;1298;111744;-66
2022/12/12 10:44:49;;;;;;;33.60;16.70;;;;;;;-0.94;77.60;97636.46;103505;1294;97875;-66
2022/12/12 10:47:18;;;;;;;33.50;17.00;;;;;;;-0.97;77.47;97636.80;103470;1298;108064;-66
2022/12/12 10:49:46;;;;;;;36.10;17.10;;;;;;;-1.01;77.52;97635.64;103471;1291;97960;-66
2022/12/12 10:52:21;;;;;;;38.70;20.10;;;;;;;-1.05;77.49;97634.25;103480;1297;97974;-65
2022/12/12 10:54:57;;;;;;;36.40;18.90;;;;;;;-1.07;77.60;97630.35;103543;1297;111859;-66
2022/12/12 10:57:28;;;;;;;35.00;17.40;;;;;;;-1.08;77.58;97629.38;103579;1291;95173;-66
2022/12/12 10:59:57;;;;;;;37.80;18.40;;;;;;;-1.14;77.41;97633.96;103517;1295;108063;-65
2022/12/12 11:02:38;;;;;;;34.60;17.60;;;;;;;-1.22;77.38;97631.20;103548;1298;97932;-67
2022/12/12 11:05:21;;;;;;;35.90;18.10;;;;;;;-1.27;77.38;97630.80;103426;1298;97954;-66
2022/12/12 11:08:05;;;;;;;36.30;18.80;;;;;;;-1.31;77.44;97634.27;103363;1298;111638;-67
2022/12/12 11:10:37;;;;;;;36.70;17.80;;;;;;;-1.35;77.39;97637.39;103403;1299;97953;-67
2022/12/12 11:13:07;;;;;;;36.00;18.30;;;;;;;-1.41;77.50;97640.46;103442;1298;108216;-66
2022/12/12 11:15:40;;;;;;;36.80;18.20;;;;;;;-1.42;77.37;97642.10;103398;1299;98079;-66
2022/12/12 11:18:14;;;;;;;39.10;18.10;;;;;;;-1.42;77.45;97641.94;103523;1291;97984;-66
2022/12/12 11:20:48;;;;;;;37.10;17.10;;;;;;;-1.43;77.54;97641.58;103409;1299;111888;-65
2022/12/12 11:23:21;;;;;;;35.40;18.20;;;;;;;-1.41;77.65;97640.28;103522;1292;97702;-65
2022/12/12 11:25:56;;;;;;;36.60;18.40;;;;;;;-1.40;77.28;97640.75;103521;1287;108151;-65
2022/12/12 11:28:29;;;;;;;35.10;19.10;;;;;;;-1.39;77.50;97642.13;103517;1293;97974;-66
2022/12/12 11:31:04;;;;;;;36.00;17.90;;;;;;;-1.37;77.70;97639.77;103522;1291;97966;-67
2022/12/12 11:33:37;;;;;;;40.50;18.80;;;;;;;-1.33;77.42;97643.77;103422;1298;111724;-67
2022/12/12 11:36:05;;;;;;;36.80;18.50;;;;;;;-1.32;77.33;97643.53;103574;1291;95212;-67
2022/12/12 11:38:48;;;;;;;39.40;20.30;;;;;;;-1.32;77.37;97645.25;103471;1291;107018;-66
2022/12/12 11:41:16;;;;;;;36.40;18.50;;;;;;;-1.31;77.45;97641.73;103520;1298;95495;-66
2022/12/12 11:43:47;;;;;;;36.80;17.80;;;;;;;-1.30;77.32;97643.30;103454;1298;98009;-65
2022/12/12 11:46:33;;;;;;;36.30;18.10;;;;;;;-1.31;77.33;97642.45;103491;1292;111606;-66